Amsterdam, Montana
Current Conditions -  °F | °C
As of 6:56 PM on Saturday 22 Nov 2014 (Local Time) from KBZN Reporting Station
Broken Clouds Broken Clouds  
Wind Chill: 26°   Ceiling: 7500
Heat Index: 35°   Visibility: 10mi
Dew Point: 19°   Wind: 13mph
Humidity: 52%   Direction: 270°W
Pressure: 29.65"   Gusts: NA
Location:  45.7517°N, 111.347°W
Report Text: KBZN 230156Z 27011KT 10SM BKN075 02/M07 A2965 RMK AO2 SLP055 T00171072
Loading
Personal Weather Stations






























Interactive Weather Map New forecast layout! Learn more

10-Day Weather Forecast

Advertisements
Track Severe Weather on mobile